sensor_id;sensor_type;location;lat;lon;timestamp;pressure;altitude;pressure_sealevel;temperature;humidity
25238;BME280;13185;50.872;5.306;2022-10-16T00:00:35;100739.81;;;12.85;100.00
25238;BME280;13185;50.872;5.306;2022-10-16T00:03:02;100745.22;;;12.85;100.00
25238;BME280;13185;50.872;5.306;2022-10-16T00:05:27;100738.22;;;12.83;100.00
25238;BME280;13185;50.872;5.306;2022-10-16T00:07:52;100729.31;;;12.82;100.00
25238;BME280;13185;50.872;5.306;2022-10-16T00:10:18;100740.06;;;12.82;100.00
25238;BME280;13185;50.872;5.306;2022-10-16T00:12:43;100732.00;;;12.82;100.00
25238;BME280;13185;50.872;5.306;2022-10-16T00:15:09;100734.78;;;12.81;100.00
25238;BME280;13185;50.872;5.306;2022-10-16T00:17:35;100733.06;;;12.80;100.00
25238;BME280;13185;50.872;5.306;2022-10-16T00:20:00;100726.09;;;12.77;100.00
25238;BME280;13185;50.872;5.306;2022-10-16T00:22:26;100720.84;;;12.76;100.00
25238;BME280;13185;50.872;5.306;2022-10-16T00:24:52;100735.25;;;12.75;100.00
25238;BME280;13185;50.872;5.306;2022-10-16T00:27:17;100738.94;;;12.74;100.00
25238;BME280;13185;50.872;5.306;2022-10-16T00:29:43;100737.94;;;12.75;100.00
25238;BME280;13185;50.872;5.306;2022-10-16T00:32:08;100741.63;;;12.74;100.00
25238;BME280;13185;50.872;5.306;2022-10-16T00:34:34;100749.91;;;12.70;100.00
25238;BME280;13185;50.872;5.306;2022-10-16T00:37:00;100750.88;;;12.69;100.00
25238;BME280;13185;50.872;5.306;2022-10-16T00:39:25;100763.47;;;12.69;100.00
25238;BME280;13185;50.872;5.306;2022-10-16T00:41:51;100761.88;;;12.66;100.00
25238;BME280;13185;50.872;5.306;2022-10-16T00:47:10;100756.50;;;12.66;100.00
25238;BME280;13185;50.872;5.306;2022-10-16T00:49:37;100757.34;;;12.67;100.00
25238;BME280;13185;50.872;5.306;2022-10-16T00:52:03;100762.00;;;12.65;100.00
25238;BME280;13185;50.872;5.306;2022-10-16T00:54:30;100759.44;;;12.63;100.00
25238;BME280;13185;50.872;5.306;2022-10-16T00:56:58;100758.69;;;12.61;100.00
25238;BME280;13185;50.872;5.306;2022-10-16T00:59:27;100755.13;;;12.61;100.00
25238;BME280;13185;50.872;5.306;2022-10-16T01:01:53;100757.81;;;12.61;100.00
25238;BME280;13185;50.872;5.306;2022-10-16T01:04:20;100764.16;;;12.60;100.00
25238;BME280;13185;50.872;5.306;2022-10-16T01:12:23;100771.72;;;12.55;100.00
25238;BME280;13185;50.872;5.306;2022-10-16T01:14:53;100778.09;;;12.54;100.00
25238;BME280;13185;50.872;5.306;2022-10-16T01:17:25;100771.00;;;12.53;100.00
25238;BME280;13185;50.872;5.306;2022-10-16T01:28:17;100777.78;;;12.46;100.00
25238;BME280;13185;50.872;5.306;2022-10-16T01:30:45;100775.22;;;12.44;100.00
25238;BME280;13185;50.872;5.306;2022-10-16T01:33:17;100780.72;;;12.42;100.00
25238;BME280;13185;50.872;5.306;2022-10-16T01:35:48;100784.59;;;12.38;100.00
25238;BME280;13185;50.872;5.306;2022-10-16T01:38:20;100786.41;;;12.38;100.00
25238;BME280;13185;50.872;5.306;2022-10-16T01:40:56;100772.97;;;12.38;100.00
25238;BME280;13185;50.872;5.306;2022-10-16T01:43:30;100758.66;;;12.37;100.00
25238;BME280;13185;50.872;5.306;2022-10-16T01:45:59;100766.63;;;12.39;100.00
25238;BME280;13185;50.872;5.306;2022-10-16T01:48:25;100765.75;;;12.38;100.00
25238;BME280;13185;50.872;5.306;2022-10-16T01:50:59;100770.94;;;12.41;100.00
25238;BME280;13185;50.872;5.306;2022-10-16T01:53:26;100773.69;;;12.40;100.00
25238;BME280;13185;50.872;5.306;2022-10-16T01:55:54;100768.25;;;12.41;100.00
25238;BME280;13185;50.872;5.306;2022-10-16T01:58:22;100773.69;;;12.40;100.00
25238;BME280;13185;50.872;5.306;2022-10-16T02:00:49;100765.56;;;12.41;100.00
25238;BME280;13185;50.872;5.306;2022-10-16T02:03:18;100767.25;;;12.42;100.00
25238;BME280;13185;50.872;5.306;2022-10-16T02:05:53;100771.66;;;12.43;100.00
25238;BME280;13185;50.872;5.306;2022-10-16T02:08:20;100773.38;;;12.45;100.00
25238;BME280;13185;50.872;5.306;2022-10-16T02:10:48;100774.34;;;12.43;100.00
25238;BME280;13185;50.872;5.306;2022-10-16T02:13:50;100764.56;;;12.42;100.00
25238;BME280;13185;50.872;5.306;2022-10-16T02:16:18;100771.78;;;12.42;100.00
25238;BME280;13185;50.872;5.306;2022-10-16T02:18:43;100770.16;;;12.39;100.00
25238;BME280;13185;50.872;5.306;2022-10-16T02:21:18;100770.16;;;12.39;100.00
25238;BME280;13185;50.872;5.306;2022-10-16T02:23:54;100771.00;;;12.40;100.00
25238;BME280;13185;50.872;5.306;2022-10-16T02:26:28;100781.69;;;12.41;100.00
25238;BME280;13185;50.872;5.306;2022-10-16T02:29:00;100773.63;;;12.41;100.00
25238;BME280;13185;50.872;5.306;2022-10-16T02:31:33;100777.16;;;12.42;100.00
25238;BME280;13185;50.872;5.306;2022-10-16T02:34:00;100773.63;;;12.41;100.00
25238;BME280;13185;50.872;5.306;2022-10-16T02:36:28;100776.31;;;12.41;100.00
25238;BME280;13185;50.872;5.306;2022-10-16T02:38:55;100779.00;;;12.41;100.00
25238;BME280;13185;50.872;5.306;2022-10-16T02:41:21;100781.78;;;12.40;100.00
25238;BME280;13185;50.872;5.306;2022-10-16T02:43:48;100773.69;;;12.40;100.00
25238;BME280;13185;50.872;5.306;2022-10-16T02:46:14;100779.84;;;12.42;100.00
25238;BME280;13185;50.872;5.306;2022-10-16T02:48:39;100781.69;;;12.41;100.00
25238;BME280;13185;50.872;5.306;2022-10-16T02:51:05;100770.81;;;12.43;100.00
25238;BME280;13185;50.872;5.306;2022-10-16T02:53:31;100774.47;;;12.42;100.00
25238;BME280;13185;50.872;5.306;2022-10-16T02:55:56;100776.31;;;12.41;100.00
25238;BME280;13185;50.872;5.306;2022-10-16T02:58:22;100776.41;;;12.40;100.00
25238;BME280;13185;50.872;5.306;2022-10-16T03:00:47;100776.50;;;12.38;100.00
25238;BME280;13185;50.872;5.306;2022-10-16T03:03:13;100777.47;;;12.37;100.00
25238;BME280;13185;50.872;5.306;2022-10-16T03:05:38;100775.78;;;12.36;100.00
25238;BME280;13185;50.872;5.306;2022-10-16T03:08:04;100783.84;;;12.36;100.00
25238;BME280;13185;50.872;5.306;2022-10-16T03:10:29;100771.50;;;12.34;100.00
25238;BME280;13185;50.872;5.306;2022-10-16T03:12:54;100777.84;;;12.33;100.00
25238;BME280;13185;50.872;5.306;2022-10-16T03:15:20;100782.25;;;12.34;100.00
25238;BME280;13185;50.872;5.306;2022-10-16T03:17:45;100785.91;;;12.33;100.00
25238;BME280;13185;50.872;5.306;2022-10-16T03:20:11;100787.94;;;12.29;100.00
25238;BME280;13185;50.872;5.306;2022-10-16T03:22:36;100798.81;;;12.28;100.00
25238;BME280;13185;50.872;5.306;2022-10-16T03:25:02;100797.94;;;12.27;100.00
25238;BME280;13185;50.872;5.306;2022-10-16T03:27:27;100806.03;;;12.27;100.00
25238;BME280;13185;50.872;5.306;2022-10-16T03:29:53;100819.47;;;12.27;100.00
25238;BME280;13185;50.872;5.306;2022-10-16T03:32:18;100820.44;;;12.26;100.00
25238;BME280;13185;50.872;5.306;2022-10-16T03:34:45;100815.91;;;12.27;100.00
25238;BME280;13185;50.872;5.306;2022-10-16T03:37:10;100814.22;;;12.26;100.00
25238;BME280;13185;50.872;5.306;2022-10-16T03:39:36;100810.66;;;12.25;100.00
25238;BME280;13185;50.872;5.306;2022-10-16T03:42:01;100812.50;;;12.25;100.00
25238;BME280;13185;50.872;5.306;2022-10-16T03:44:27;100808.09;;;12.24;100.00
25238;BME280;13185;50.872;5.306;2022-10-16T03:46:52;100818.09;;;12.22;100.00
25238;BME280;13185;50.872;5.306;2022-10-16T03:49:17;100817.97;;;12.23;100.00
25238;BME280;13185;50.872;5.306;2022-10-16T03:51:43;100824.34;;;12.22;100.00
25238;BME280;13185;50.872;5.306;2022-10-16T03:54:09;100831.53;;;12.22;100.00
25238;BME280;13185;50.872;5.306;2022-10-16T03:56:35;100832.50;;;12.21;100.00
25238;BME280;13185;50.872;5.306;2022-10-16T03:59:00;100835.28;;;12.19;100.00
25238;BME280;13185;50.872;5.306;2022-10-16T04:01:26;100827.22;;;12.19;100.00
25238;BME280;13185;50.872;5.306;2022-10-16T04:03:51;100833.50;;;12.20;100.00
25238;BME280;13185;50.872;5.306;2022-10-16T04:06:17;100832.50;;;12.21;100.00
25238;BME280;13185;50.872;5.306;2022-10-16T04:08:43;100827.03;;;12.22;100.00
25238;BME280;13185;50.872;5.306;2022-10-16T04:11:08;100840.47;;;12.22;100.00
25238;BME280;13185;50.872;5.306;2022-10-16T04:13:34;100842.28;;;12.22;100.00
25238;BME280;13185;50.872;5.306;2022-10-16T04:15:59;100848.72;;;12.19;100.00
25238;BME280;13185;50.872;5.306;2022-10-16T04:18:25;100853.25;;;12.19;100.00
25238;BME280;13185;50.872;5.306;2022-10-16T04:20:52;100854.09;;;12.19;100.00
25238;BME280;13185;50.872;5.306;2022-10-16T04:23:18;100851.34;;;12.21;100.00
25238;BME280;13185;50.872;5.306;2022-10-16T04:25:43;100865.63;;;12.21;100.00
25238;BME280;13185;50.872;5.306;2022-10-16T04:28:09;100836.91;;;12.22;100.00
25238;BME280;13185;50.872;5.306;2022-10-16T04:30:34;100858.31;;;12.23;100.00
25238;BME280;13185;50.872;5.306;2022-10-16T04:33:00;100854.03;;;12.21;100.00
25238;BME280;13185;50.872;5.306;2022-10-16T04:35:25;100861.22;;;12.20;100.00
25238;BME280;13185;50.872;5.306;2022-10-16T04:37:51;100861.31;;;12.19;100.00
25238;BME280;13185;50.872;5.306;2022-10-16T04:40:16;100857.69;;;12.20;100.00
25238;BME280;13185;50.872;5.306;2022-10-16T04:42:42;100872.00;;;12.20;100.00
25238;BME280;13185;50.872;5.306;2022-10-16T04:45:08;100867.56;;;12.19;100.00
25238;BME280;13185;50.872;5.306;2022-10-16T04:47:34;100862.16;;;12.19;100.00
25238;BME280;13185;50.872;5.306;2022-10-16T04:49:59;100866.69;;;12.19;100.00
25238;BME280;13185;50.872;5.306;2022-10-16T04:52:26;100861.44;;;12.17;100.00
25238;BME280;13185;50.872;5.306;2022-10-16T04:54:52;100871.22;;;12.18;100.00
25238;BME280;13185;50.872;5.306;2022-10-16T04:57:17;100866.69;;;12.19;100.00
25238;BME280;13185;50.872;5.306;2022-10-16T04:59:43;100857.69;;;12.20;100.00
25238;BME280;13185;50.872;5.306;2022-10-16T05:02:09;100866.59;;;12.20;100.00
25238;BME280;13185;50.872;5.306;2022-10-16T05:04:34;100870.03;;;12.22;100.00
25238;BME280;13185;50.872;5.306;2022-10-16T05:06:59;100879.19;;;12.20;100.00
25238;BME280;13185;50.872;5.306;2022-10-16T05:09:25;100877.56;;;12.17;100.00
25238;BME280;13185;50.872;5.306;2022-10-16T05:11:50;100884.75;;;12.17;100.00
25238;BME280;13185;50.872;5.306;2022-10-16T05:14:16;100891.00;;;12.17;100.00
25238;BME280;13185;50.872;5.306;2022-10-16T05:16:41;100882.81;;;12.19;100.00
25238;BME280;13185;50.872;5.306;2022-10-16T05:19:07;100887.34;;;12.18;100.00
25238;BME280;13185;50.872;5.306;2022-10-16T05:21:32;100894.66;;;12.16;100.00
25238;BME280;13185;50.872;5.306;2022-10-16T05:23:58;100898.31;;;12.15;100.00
25238;BME280;13185;50.872;5.306;2022-10-16T05:26:23;100910.91;;;12.14;100.00
25238;BME280;13185;50.872;5.306;2022-10-16T05:28:49;100903.81;;;12.13;100.00
25238;BME280;13185;50.872;5.306;2022-10-16T05:31:15;100906.63;;;12.12;100.00
25238;BME280;13185;50.872;5.306;2022-10-16T05:33:40;100922.75;;;12.12;100.00
25238;BME280;13185;50.872;5.306;2022-10-16T05:36:08;100926.41;;;12.11;100.00
25238;BME280;13185;50.872;5.306;2022-10-16T05:38:34;100924.47;;;12.13;100.00
25238;BME280;13185;50.872;5.306;2022-10-16T05:41:01;100925.31;;;12.13;100.00
25238;BME280;13185;50.872;5.306;2022-10-16T05:43:28;100933.28;;;12.15;100.00
25238;BME280;13185;50.872;5.306;2022-10-16T05:46:01;100937.69;;;12.16;100.00
25238;BME280;13185;50.872;5.306;2022-10-16T05:48:27;100934.88;;;12.18;100.00
25238;BME280;13185;50.872;5.306;2022-10-16T05:51:01;100935.66;;;12.20;100.00
25238;BME280;13185;50.872;5.306;2022-10-16T05:53:28;100937.38;;;12.21;100.00
25238;BME280;13185;50.872;5.306;2022-10-16T05:55:55;100934.69;;;12.21;100.00
25238;BME280;13185;50.872;5.306;2022-10-16T05:58:22;100941.88;;;12.20;100.00
25238;BME280;13185;50.872;5.306;2022-10-16T06:01:17;100959.84;;;12.20;100.00
25238;BME280;13185;50.872;5.306;2022-10-16T06:03:43;100953.50;;;12.21;100.00
25238;BME280;13185;50.872;5.306;2022-10-16T06:06:11;100960.72;;;12.20;100.00
25238;BME280;13185;50.872;5.306;2022-10-16T06:08:37;100967.81;;;12.21;100.00
25238;BME280;13185;50.872;5.306;2022-10-16T06:11:04;100967.91;;;12.20;100.00
25238;BME280;13185;50.872;5.306;2022-10-16T06:13:30;100976.00;;;12.20;100.00
25238;BME280;13185;50.872;5.306;2022-10-16T06:15:57;100970.91;;;12.15;100.00
25238;BME280;13185;50.872;5.306;2022-10-16T06:18:24;100975.44;;;12.14;100.00
25238;BME280;13185;50.872;5.306;2022-10-16T06:20:49;100977.16;;;12.16;100.00
25238;BME280;13185;50.872;5.306;2022-10-16T06:23:15;100977.25;;;12.14;100.00
25238;BME280;13185;50.872;5.306;2022-10-16T06:25:40;100981.78;;;12.13;100.00
25238;BME280;13185;50.872;5.306;2022-10-16T06:28:05;100984.47;;;12.13;100.00
25238;BME280;13185;50.872;5.306;2022-10-16T06:30:31;100986.28;;;12.13;100.00
25238;BME280;13185;50.872;5.306;2022-10-16T06:32:56;100999.72;;;12.13;100.00
25238;BME280;13185;50.872;5.306;2022-10-16T06:35:22;100995.31;;;12.12;100.00
25238;BME280;13185;50.872;5.306;2022-10-16T06:37:47;100998.03;;;12.12;100.00
25238;BME280;13185;50.872;5.306;2022-10-16T06:40:13;100997.16;;;12.11;100.00
25238;BME280;13185;50.872;5.306;2022-10-16T06:42:40;100996.19;;;12.12;100.00
25238;BME280;13185;50.872;5.306;2022-10-16T06:45:06;101000.59;;;12.13;100.00
25238;BME280;13185;50.872;5.306;2022-10-16T06:47:31;101005.13;;;12.13;100.00
25238;BME280;13185;50.872;5.306;2022-10-16T06:49:57;101001.34;;;12.16;100.00
25238;BME280;13185;50.872;5.306;2022-10-16T06:52:22;101014.69;;;12.17;100.00
25238;BME280;13185;50.872;5.306;2022-10-16T06:54:47;101018.22;;;12.18;100.00
25238;BME280;13185;50.872;5.306;2022-10-16T06:57:13;101019.09;;;12.18;100.00
25238;BME280;13185;50.872;5.306;2022-10-16T06:59:38;101036.00;;;12.20;100.00
25238;BME280;13185;50.872;5.306;2022-10-16T07:02:04;101031.16;;;12.25;100.00
25238;BME280;13185;50.872;5.306;2022-10-16T07:04:30;101033.63;;;12.28;100.00
25238;BME280;13185;50.872;5.306;2022-10-16T07:06:56;101039.78;;;12.30;100.00
25238;BME280;13185;50.872;5.306;2022-10-16T07:09:21;101043.22;;;12.32;100.00
25238;BME280;13185;50.872;5.306;2022-10-16T07:11:46;101047.41;;;12.36;100.00
25238;BME280;13185;50.872;5.306;2022-10-16T07:14:17;101046.31;;;12.39;100.00
25238;BME280;13185;50.872;5.306;2022-10-16T07:16:43;101054.09;;;12.43;100.00
25238;BME280;13185;50.872;5.306;2022-10-16T07:19:09;101058.38;;;12.46;100.00
25238;BME280;13185;50.872;5.306;2022-10-16T07:21:37;101063.66;;;12.48;100.00
25238;BME280;13185;50.872;5.306;2022-10-16T07:24:05;101067.88;;;12.52;100.00
25238;BME280;13185;50.872;5.306;2022-10-16T07:26:33;101067.44;;;12.58;100.00
25238;BME280;13185;50.872;5.306;2022-10-16T07:28:59;101075.19;;;12.62;100.00
25238;BME280;13185;50.872;5.306;2022-10-16T07:31:26;101073.13;;;12.66;100.00
25238;BME280;13185;50.872;5.306;2022-10-16T07:33:51;101078.28;;;12.69;100.00
25238;BME280;13185;50.872;5.306;2022-10-16T07:36:18;101078.75;;;12.76;100.00
25238;BME280;13185;50.872;5.306;2022-10-16T07:38:44;101077.53;;;12.80;100.00
25238;BME280;13185;50.872;5.306;2022-10-16T07:41:12;101082.50;;;12.86;100.00
25238;BME280;13185;50.872;5.306;2022-10-16T07:43:39;101089.38;;;12.90;100.00
25238;BME280;13185;50.872;5.306;2022-10-16T07:46:04;101095.50;;;12.92;100.00
25238;BME280;13185;50.872;5.306;2022-10-16T07:48:32;101108.66;;;12.96;100.00
25238;BME280;13185;50.872;5.306;2022-10-16T07:51:00;101107.34;;;13.02;100.00
25238;BME280;13185;50.872;5.306;2022-10-16T07:53:26;101109.63;;;13.08;100.00
25238;BME280;13185;50.872;5.306;2022-10-16T07:55:52;101111.09;;;13.12;100.00
25238;BME280;13185;50.872;5.306;2022-10-16T07:58:17;101119.84;;;13.16;100.00
25238;BME280;13185;50.872;5.306;2022-10-16T08:00:43;101135.59;;;13.22;100.00
25238;BME280;13185;50.872;5.306;2022-10-16T08:03:08;101133.69;;;13.24;100.00
25238;BME280;13185;50.872;5.306;2022-10-16T08:05:34;101136.13;;;13.27;100.00
25238;BME280;13185;50.872;5.306;2022-10-16T08:08:00;101137.63;;;13.31;100.00
25238;BME280;13185;50.872;5.306;2022-10-16T08:10:27;101159.84;;;13.35;100.00
25238;BME280;13185;50.872;5.306;2022-10-16T08:12:52;101155.81;;;13.40;100.00
25238;BME280;13185;50.872;5.306;2022-10-16T08:15:19;101155.59;;;13.43;100.00
25238;BME280;13185;50.872;5.306;2022-10-16T08:17:45;101163.38;;;13.48;100.00
25238;BME280;13185;50.872;5.306;2022-10-16T08:20:18;101166.69;;;13.51;100.00
25238;BME280;13185;50.872;5.306;2022-10-16T08:22:44;101154.94;;;13.52;100.00
25238;BME280;13185;50.872;5.306;2022-10-16T08:25:09;101153.97;;;13.53;100.00
25238;BME280;13185;50.872;5.306;2022-10-16T08:27:35;101171.75;;;13.56;100.00
25238;BME280;13185;50.872;5.306;2022-10-16T08:30:00;101167.00;;;13.60;100.00
25238;BME280;13185;50.872;5.306;2022-10-16T08:32:25;101169.16;;;13.67;100.00
25238;BME280;13185;50.872;5.306;2022-10-16T08:34:51;101168.69;;;13.73;100.00
25238;BME280;13185;50.872;5.306;2022-10-16T08:37:16;101163.72;;;13.80;100.00
25238;BME280;13185;50.872;5.306;2022-10-16T08:39:42;101166.72;;;13.88;100.00
25238;BME280;13185;50.872;5.306;2022-10-16T08:42:12;101170.03;;;13.92;100.00
25238;BME280;13185;50.872;5.306;2022-10-16T08:47:45;101178.53;;;13.98;100.00
25238;BME280;13185;50.872;5.306;2022-10-16T08:50:21;101183.94;;;13.98;100.00
25238;BME280;13185;50.872;5.306;2022-10-16T08:52:48;101177.22;;;14.04;100.00
25238;BME280;13185;50.872;5.306;2022-10-16T08:57:54;101187.44;;;14.11;100.00
25238;BME280;13185;50.872;5.306;2022-10-16T09:00:20;101193.34;;;14.16;100.00
25238;BME280;13185;50.872;5.306;2022-10-16T09:05:53;101200.00;;;14.24;100.00
25238;BME280;13185;50.872;5.306;2022-10-16T09:16:41;101192.63;;;14.38;100.00
25238;BME280;13185;50.872;5.306;2022-10-16T09:19:16;101199.72;;;14.39;100.00
25238;BME280;13185;50.872;5.306;2022-10-16T09:21:45;101194.94;;;14.43;100.00
25238;BME280;13185;50.872;5.306;2022-10-16T09:24:19;101198.09;;;14.50;100.00
25238;BME280;13185;50.872;5.306;2022-10-16T09:26:46;101192.56;;;14.51;100.00
25238;BME280;13185;50.872;5.306;2022-10-16T09:29:14;101192.09;;;14.57;100.00
25238;BME280;13185;50.872;5.306;2022-10-16T09:31:40;101200.72;;;14.62;100.00
25238;BME280;13185;50.872;5.306;2022-10-16T09:34:08;101200.47;;;14.65;100.00
25238;BME280;13185;50.872;5.306;2022-10-16T09:36:43;101199.16;;;14.71;100.00
25238;BME280;13185;50.872;5.306;2022-10-16T09:39:11;101200.75;;;14.73;100.00
25238;BME280;13185;50.872;5.306;2022-10-16T09:41:42;101196.81;;;14.78;100.00
25238;BME280;13185;50.872;5.306;2022-10-16T09:44:26;101206.44;;;14.82;100.00
25238;BME280;13185;50.872;5.306;2022-10-16T09:47:13;101202.50;;;14.86;100.00
25238;BME280;13185;50.872;5.306;2022-10-16T09:49:53;101207.31;;;14.93;100.00
25238;BME280;13185;50.872;5.306;2022-10-16T09:52:20;101214.31;;;14.96;100.00
25238;BME280;13185;50.872;5.306;2022-10-16T09:54:53;101206.94;;;14.98;100.00
25238;BME280;13185;50.872;5.306;2022-10-16T09:57:20;101207.47;;;15.03;100.00
25238;BME280;13185;50.872;5.306;2022-10-16T09:59:56;101211.75;;;15.06;100.00
25238;BME280;13185;50.872;5.306;2022-10-16T10:02:39;101216.19;;;15.07;100.00
25238;BME280;13185;50.872;5.306;2022-10-16T10:05:06;101206.34;;;15.06;100.00
25238;BME280;13185;50.872;5.306;2022-10-16T10:07:43;101212.50;;;15.08;100.00
25238;BME280;13185;50.872;5.306;2022-10-16T10:10:23;101211.28;;;15.12;100.00
25238;BME280;13185;50.872;5.306;2022-10-16T10:12:49;101205.50;;;15.16;100.00
25238;BME280;13185;50.872;5.306;2022-10-16T10:15:15;101211.19;;;15.24;100.00
25238;BME280;13185;50.872;5.306;2022-10-16T10:17:51;101215.75;;;15.35;100.00
25238;BME280;13185;50.872;5.306;2022-10-16T10:22:53;101216.84;;;15.44;100.00
25238;BME280;13185;50.872;5.306;2022-10-16T10:28:26;101235.53;;;15.58;100.00
25238;BME280;13185;50.872;5.306;2022-10-16T10:34:01;101246.50;;;15.68;100.00
25238;BME280;13185;50.872;5.306;2022-10-16T10:36:32;101238.13;;;15.71;100.00
25238;BME280;13185;50.872;5.306;2022-10-16T10:39:13;101240.84;;;15.71;99.24
25238;BME280;13185;50.872;5.306;2022-10-16T10:50:19;101239.84;;;15.83;97.89
25238;BME280;13185;50.872;5.306;2022-10-16T10:55:51;101237.25;;;15.93;98.32
25238;BME280;13185;50.872;5.306;2022-10-16T10:58:38;101235.53;;;16.03;97.88
25238;BME280;13185;50.872;5.306;2022-10-16T11:01:14;101245.34;;;16.15;97.23
25238;BME280;13185;50.872;5.306;2022-10-16T11:09:53;101234.50;;;16.37;94.72
25238;BME280;13185;50.872;5.306;2022-10-16T11:12:26;101234.34;;;16.39;95.34
25238;BME280;13185;50.872;5.306;2022-10-16T11:17:44;101237.56;;;16.65;90.85
25238;BME280;13185;50.872;5.306;2022-10-16T11:20:19;101236.56;;;16.77;91.32
25238;BME280;13185;50.872;5.306;2022-10-16T11:23:05;101232.94;;;16.88;90.94
25238;BME280;13185;50.872;5.306;2022-10-16T11:25:33;101231.13;;;16.88;90.02
25238;BME280;13185;50.872;5.306;2022-10-16T11:28:12;101234.47;;;16.81;87.69
25238;BME280;13185;50.872;5.306;2022-10-16T11:34:04;101220.00;;;16.91;88.17
25238;BME280;13185;50.872;5.306;2022-10-16T11:36:57;101243.75;;;16.99;88.49
25238;BME280;13185;50.872;5.306;2022-10-16T11:39:26;101241.22;;;17.07;87.85
25238;BME280;13185;50.872;5.306;2022-10-16T11:41:55;101229.84;;;17.13;86.33
25238;BME280;13185;50.872;5.306;2022-10-16T11:44:38;101228.44;;;17.19;85.22
25238;BME280;13185;50.872;5.306;2022-10-16T11:47:17;101224.69;;;17.31;85.41
25238;BME280;13185;50.872;5.306;2022-10-16T11:49:45;101227.06;;;17.45;85.16
25238;BME280;13185;50.872;5.306;2022-10-16T11:52:38;101224.97;;;17.58;84.18
25238;BME280;13185;50.872;5.306;2022-10-16T11:55:15;101228.00;;;17.65;83.87
25238;BME280;13185;50.872;5.306;2022-10-16T11:57:48;101227.44;;;17.62;83.31
25238;BME280;13185;50.872;5.306;2022-10-16T12:06:00;101225.75;;;17.70;82.42
25238;BME280;13185;50.872;5.306;2022-10-16T12:08:30;101233.97;;;17.89;82.46
25238;BME280;13185;50.872;5.306;2022-10-16T12:11:19;101236.78;;;18.18;82.64
25238;BME280;13185;50.872;5.306;2022-10-16T12:13:46;101230.69;;;18.36;80.04
25238;BME280;13185;50.872;5.306;2022-10-16T12:18:44;101240.72;;;18.64;80.55
25238;BME280;13185;50.872;5.306;2022-10-16T12:21:12;101240.59;;;18.66;79.92
25238;BME280;13185;50.872;5.306;2022-10-16T12:23:51;101237.44;;;18.70;79.11
25238;BME280;13185;50.872;5.306;2022-10-16T12:26:44;101239.47;;;18.68;79.11
25238;BME280;13185;50.872;5.306;2022-10-16T12:31:48;101236.44;;;18.81;80.08
25238;BME280;13185;50.872;5.306;2022-10-16T12:36:47;101227.28;;;18.82;78.29
25238;BME280;13185;50.872;5.306;2022-10-16T12:39:24;101227.28;;;18.82;79.07
25238;BME280;13185;50.872;5.306;2022-10-16T12:42:05;101229.72;;;18.75;78.74
25238;BME280;13185;50.872;5.306;2022-10-16T12:44:33;101232.88;;;18.71;77.97
25238;BME280;13185;50.872;5.306;2022-10-16T12:46:59;101224.88;;;18.69;77.04
25238;BME280;13185;50.872;5.306;2022-10-16T12:49:50;101216.28;;;18.74;77.17
25238;BME280;13185;50.872;5.306;2022-10-16T12:54:59;101227.44;;;18.90;76.95
25238;BME280;13185;50.872;5.306;2022-10-16T13:00:25;101218.44;;;18.90;74.84
25238;BME280;13185;50.872;5.306;2022-10-16T13:03:22;101212.69;;;18.93;75.66
25238;BME280;13185;50.872;5.306;2022-10-16T13:16:41;101236.25;;;19.21;73.85
25238;BME280;13185;50.872;5.306;2022-10-16T13:22:13;101235.94;;;19.34;73.48
25238;BME280;13185;50.872;5.306;2022-10-16T13:30:28;101244.97;;;19.25;72.31
25238;BME280;13185;50.872;5.306;2022-10-16T13:33:22;101248.84;;;19.32;72.01
25238;BME280;13185;50.872;5.306;2022-10-16T13:35:54;101244.38;;;19.41;72.43
25238;BME280;13185;50.872;5.306;2022-10-16T13:38:20;101236.34;;;19.49;72.80
25238;BME280;13185;50.872;5.306;2022-10-16T13:43:27;101249.34;;;19.55;72.26
25238;BME280;13185;50.872;5.306;2022-10-16T13:46:12;101242.75;;;19.48;72.93
25238;BME280;13185;50.872;5.306;2022-10-16T13:48:38;101264.69;;;19.37;71.88
25238;BME280;13185;50.872;5.306;2022-10-16T13:51:17;101251.56;;;19.22;73.00
25238;BME280;13185;50.872;5.306;2022-10-16T13:53:44;101242.84;;;19.19;73.75
25238;BME280;13185;50.872;5.306;2022-10-16T13:56:18;101228.81;;;19.14;74.31
25238;BME280;13185;50.872;5.306;2022-10-16T13:58:45;101236.28;;;19.12;73.95
25238;BME280;13185;50.872;5.306;2022-10-16T14:01:19;101230.84;;;19.12;74.11
25238;BME280;13185;50.872;5.306;2022-10-16T14:03:46;101237.44;;;19.09;72.81
25238;BME280;13185;50.872;5.306;2022-10-16T14:06:14;101242.88;;;19.09;72.93
25238;BME280;13185;50.872;5.306;2022-10-16T14:08:44;101237.13;;;19.12;72.29
25238;BME280;13185;50.872;5.306;2022-10-16T14:11:11;101236.97;;;19.14;72.43
25238;BME280;13185;50.872;5.306;2022-10-16T14:13:42;101236.13;;;19.13;71.52
25238;BME280;13185;50.872;5.306;2022-10-16T14:16:10;101228.81;;;19.14;71.93
25238;BME280;13185;50.872;5.306;2022-10-16T14:18:37;101220.66;;;19.14;73.22
25238;BME280;13185;50.872;5.306;2022-10-16T14:21:10;101225.56;;;19.10;72.30
25238;BME280;13185;50.872;5.306;2022-10-16T14:23:38;101215.53;;;19.11;72.30
25238;BME280;13185;50.872;5.306;2022-10-16T14:28:38;101209.78;;;19.14;71.94
25238;BME280;13185;50.872;5.306;2022-10-16T14:31:25;101214.06;;;19.16;72.61
25238;BME280;13185;50.872;5.306;2022-10-16T14:33:51;101204.22;;;19.15;73.14
25238;BME280;13185;50.872;5.306;2022-10-16T14:36:17;101209.78;;;19.14;73.02
25238;BME280;13185;50.872;5.306;2022-10-16T14:41:28;101210.97;;;19.11;74.53
25238;BME280;13185;50.872;5.306;2022-10-16T14:43:56;101213.38;;;19.14;75.25